createdAt,value
2023-05-11T00:02:12.553Z,71.65
2023-05-11T00:04:57.837Z,63.50
2023-05-11T00:07:43.038Z,68.15
2023-05-11T00:10:29.367Z,75.35
2023-05-11T00:13:14.744Z,70.55
2023-05-11T00:15:59.780Z,81.40
2023-05-11T00:18:45.134Z,119.50
2023-05-11T00:21:30.731Z,101.72
2023-05-11T00:24:16.061Z,99.10
2023-05-11T00:27:00.997Z,122.90
2023-05-11T00:29:46.401Z,100.38
2023-05-11T00:32:31.750Z,101.90
2023-05-11T00:35:17.122Z,104.72
2023-05-11T00:38:02.184Z,100.55
2023-05-11T00:40:48.974Z,89.25
2023-05-11T00:43:34.319Z,89.90
2023-05-11T00:46:20.512Z,72.10
2023-05-11T00:49:05.850Z,111.20
2023-05-11T00:51:51.305Z,104.78
2023-05-11T00:54:36.685Z,99.70
2023-05-11T00:57:21.759Z,117.15
2023-05-11T01:00:07.697Z,93.05
2023-05-11T01:02:53.750Z,129.60
2023-05-11T01:05:46.999Z,115.20
2023-05-11T01:08:44.830Z,90.20
2023-05-11T01:11:51.321Z,110.80
2023-05-11T01:14:45.062Z,98.97
2023-05-11T01:17:54.847Z,91.97
2023-05-11T01:20:44.120Z,94.22
2023-05-11T01:23:54.097Z,118.40
2023-05-11T01:27:05.838Z,92.55
2023-05-11T01:30:29.155Z,96.57
2023-05-11T01:33:16.181Z,74.50
2023-05-11T01:36:05.287Z,114.32
2023-05-11T01:38:51.640Z,121.80
2023-05-11T01:41:40.233Z,133.18
2023-05-11T01:44:30.440Z,148.65
2023-05-11T01:47:17.084Z,122.88
2023-05-11T01:50:06.257Z,150.18
2023-05-11T01:52:52.084Z,95.90
2023-05-11T01:55:39.789Z,83.95
2023-05-11T01:58:27.155Z,73.75
2023-05-11T02:01:15.621Z,73.07
2023-05-11T02:04:03.471Z,141.38
2023-05-11T02:06:50.887Z,94.10
2023-05-11T02:09:38.020Z,88.93
2023-05-11T02:12:25.085Z,102.68
2023-05-11T02:15:11.602Z,95.22
2023-05-11T02:17:57.609Z,78.18
2023-05-11T02:20:46.049Z,112.80
2023-05-11T02:23:33.421Z,76.50
2023-05-11T02:26:18.484Z,114.63
2023-05-11T02:29:03.855Z,115.65
2023-05-11T02:31:52.734Z,102.82
2023-05-11T02:34:43.620Z,86.93
2023-05-11T02:37:30.855Z,92.57
2023-05-11T02:40:22.618Z,98.13
2023-05-11T02:43:11.227Z,126.72
2023-05-11T02:46:01.925Z,83.35
2023-05-11T02:48:51.862Z,113.78
2023-05-11T02:51:41.173Z,115.13
2023-05-11T02:54:27.012Z,115.50
2023-05-11T02:57:12.756Z,89.57
2023-05-11T02:59:58.411Z,97.53
2023-05-11T03:02:43.455Z,106.82
2023-05-11T03:05:28.811Z,91.88
2023-05-11T03:08:14.060Z,116.97
2023-05-11T03:10:59.255Z,115.30
2023-05-11T03:13:45.626Z,112.00
2023-05-11T03:16:32.233Z,93.32
2023-05-11T03:19:17.950Z,90.80
2023-05-11T03:22:04.336Z,111.45
2023-05-11T03:24:51.274Z,121.15
2023-05-11T03:27:37.026Z,117.75
2023-05-11T03:30:23.266Z,95.80
2023-05-11T03:33:09.249Z,157.57
2023-05-11T03:35:55.186Z,108.93
2023-05-11T03:38:40.776Z,104.50
2023-05-11T03:41:27.933Z,117.80
2023-05-11T03:44:14.797Z,100.13
2023-05-11T03:47:00.931Z,111.22
2023-05-11T03:49:46.517Z,109.55
2023-05-11T03:52:31.962Z,105.35
2023-05-11T03:55:17.320Z,91.88
2023-05-11T03:58:06.733Z,105.28
2023-05-11T04:00:52.450Z,101.85
2023-05-11T04:03:52.607Z,100.50
2023-05-11T04:06:38.282Z,112.38
2023-05-11T04:09:23.634Z,112.57
2023-05-11T04:12:08.589Z,99.00
2023-05-11T04:14:53.997Z,98.90
2023-05-11T04:17:39.252Z,109.40
2023-05-11T04:20:24.533Z,118.88
2023-05-11T04:23:10.518Z,114.88
2023-05-11T04:25:56.282Z,116.10
2023-05-11T04:28:41.385Z,94.32
2023-05-11T04:31:26.869Z,94.30
2023-05-11T04:34:12.030Z,101.95
2023-05-11T04:36:57.047Z,153.88
2023-05-11T04:39:41.909Z,104.88
2023-05-11T04:42:26.712Z,141.25
2023-05-11T04:45:11.808Z,95.80
2023-05-11T04:47:56.734Z,95.70
2023-05-11T04:50:41.677Z,104.57
2023-05-11T04:53:26.494Z,114.53
2023-05-11T04:56:11.826Z,117.93
2023-05-11T04:58:57.030Z,111.65
2023-05-11T05:01:42.124Z,95.28
2023-05-11T05:04:27.421Z,89.80
2023-05-11T05:07:12.962Z,92.05
2023-05-11T05:09:58.227Z,83.93
2023-05-11T05:12:43.098Z,84.85
2023-05-11T05:15:28.387Z,87.03
2023-05-11T05:18:14.017Z,79.55
2023-05-11T05:20:59.342Z,86.82
2023-05-11T05:23:44.392Z,89.50
2023-05-11T05:26:29.853Z,91.43
2023-05-11T05:29:15.221Z,94.63
2023-05-11T05:32:00.016Z,106.45
2023-05-11T05:34:45.476Z,114.03
2023-05-11T05:37:30.749Z,106.85
2023-05-11T05:40:15.581Z,135.68
2023-05-11T05:43:00.949Z,88.57
2023-05-11T05:45:45.787Z,80.38
2023-05-11T05:48:31.130Z,86.80
2023-05-11T05:51:16.487Z,91.97
2023-05-11T05:54:01.889Z,77.63
2023-05-11T05:56:47.322Z,77.57
2023-05-11T05:59:32.596Z,90.75
2023-05-11T06:02:17.524Z,75.28
2023-05-11T06:05:02.365Z,81.60
2023-05-11T06:07:58.131Z,73.15
2023-05-11T06:10:52.956Z,80.97
2023-05-11T06:13:37.828Z,74.30
2023-05-11T06:16:22.562Z,69.70
2023-05-11T06:19:08.309Z,66.47
2023-05-11T06:21:53.507Z,66.72
2023-05-11T06:24:38.509Z,66.40
2023-05-11T06:27:23.645Z,58.78
2023-05-11T06:30:09.546Z,54.25
2023-05-11T06:32:55.068Z,47.78
2023-05-11T06:35:40.253Z,109.50
2023-05-11T06:38:25.473Z,79.63
2023-05-11T06:41:10.435Z,65.68
2023-05-11T06:43:55.846Z,55.05
2023-05-11T06:46:41.322Z,53.80
2023-05-11T06:49:26.866Z,51.92
2023-05-11T06:52:12.088Z,50.90
2023-05-11T06:54:57.543Z,48.88
2023-05-11T06:57:42.868Z,55.33
2023-05-11T07:00:28.252Z,49.78
2023-05-11T07:03:13.241Z,46.30
2023-05-11T07:05:58.373Z,43.33
2023-05-11T07:08:43.800Z,43.83
2023-05-11T07:11:30.899Z,46.92
2023-05-11T07:14:16.060Z,43.40
2023-05-11T07:17:01.059Z,40.50
2023-05-11T07:19:46.338Z,43.38
2023-05-11T07:22:31.174Z,43.05
2023-05-11T07:25:15.879Z,42.53
2023-05-11T07:28:01.295Z,42.08
2023-05-11T07:30:47.260Z,43.92
2023-05-11T07:33:32.336Z,44.55
2023-05-11T07:36:17.968Z,41.05
2023-05-11T07:39:03.396Z,41.97
2023-05-11T07:41:48.529Z,40.17
2023-05-11T07:44:33.421Z,42.00
2023-05-11T07:47:18.307Z,43.88
2023-05-11T07:50:03.972Z,42.53
2023-05-11T07:52:49.510Z,44.58
2023-05-11T07:55:34.578Z,42.13
2023-05-11T07:58:19.894Z,43.50
2023-05-11T08:01:05.331Z,41.20
2023-05-11T08:03:50.814Z,40.55
2023-05-11T08:06:35.849Z,50.22
2023-05-11T08:09:20.902Z,43.92
2023-05-11T08:12:06.392Z,49.92
2023-05-11T08:14:51.442Z,47.67
2023-05-11T08:17:36.950Z,45.45
2023-05-11T08:20:22.364Z,48.40
2023-05-11T08:23:08.865Z,56.38
2023-05-11T08:25:55.392Z,49.47
2023-05-11T08:28:40.434Z,49.45
2023-05-11T08:31:25.231Z,50.45
2023-05-11T08:34:18.676Z,59.33
2023-05-11T08:37:04.979Z,50.42
2023-05-11T08:39:50.502Z,54.53
2023-05-11T08:42:39.861Z,57.47
2023-05-11T08:45:25.871Z,52.35
2023-05-11T08:48:11.503Z,53.17
2023-05-11T08:50:56.482Z,46.22
2023-05-11T08:53:41.732Z,46.35
2023-05-11T08:56:29.650Z,40.08
2023-05-11T08:59:15.425Z,37.53
2023-05-11T09:02:00.976Z,35.42
2023-05-11T09:04:48.311Z,31.60
2023-05-11T09:07:38.730Z,30.55
2023-05-11T09:10:24.213Z,30.40
2023-05-11T09:13:09.729Z,29.42
2023-05-11T09:15:54.797Z,31.70
2023-05-11T09:18:53.656Z,28.45
2023-05-11T09:21:39.024Z,36.45
2023-05-11T09:24:24.734Z,37.95
2023-05-11T09:27:10.273Z,41.80
2023-05-11T09:29:55.537Z,74.13
2023-05-11T09:32:51.200Z,39.47
2023-05-11T09:35:36.321Z,32.85
2023-05-11T09:38:25.114Z,36.17
2023-05-11T09:41:10.876Z,33.17
2023-05-11T09:44:11.103Z,32.97
2023-05-11T09:47:14.016Z,30.52
2023-05-11T09:49:59.258Z,32.72
2023-05-11T09:52:50.902Z,33.70
2023-05-11T09:55:35.983Z,36.50
2023-05-11T09:58:21.753Z,33.28
2023-05-11T10:01:07.138Z,35.05
2023-05-11T10:03:56.369Z,34.17
2023-05-11T10:06:52.314Z,31.70
2023-05-11T10:09:38.245Z,32.10
2023-05-11T10:12:25.580Z,34.38
2023-05-11T10:15:11.302Z,29.65
2023-05-11T10:17:58.879Z,30.65
2023-05-11T10:20:47.624Z,32.58
2023-05-11T10:23:33.253Z,33.13
2023-05-11T10:26:19.103Z,34.70
2023-05-11T10:29:05.015Z,33.42
2023-05-11T10:31:51.320Z,36.00
2023-05-11T10:34:36.596Z,33.20
2023-05-11T10:37:22.445Z,37.20
2023-05-11T10:40:09.118Z,37.75
2023-05-11T10:43:22.354Z,42.58
2023-05-11T10:46:25.062Z,42.83
2023-05-11T10:49:47.818Z,38.60
2023-05-11T10:53:04.514Z,27.73
2023-05-11T10:55:56.002Z,20.85
2023-05-11T10:58:59.223Z,22.70
2023-05-11T11:01:46.386Z,20.85
2023-05-11T11:04:49.598Z,18.73
2023-05-11T11:08:00.985Z,16.98
2023-05-11T11:10:45.868Z,19.65
2023-05-11T11:13:57.857Z,17.90
2023-05-11T11:17:14.426Z,18.00
2023-05-11T11:20:04.126Z,18.20
2023-05-11T11:22:49.171Z,19.88
2023-05-11T11:25:51.944Z,17.10
2023-05-11T11:28:55.618Z,18.80
2023-05-11T11:31:41.473Z,18.17
2023-05-11T11:34:29.605Z,15.98
2023-05-11T11:37:16.365Z,16.17
2023-05-11T11:40:09.403Z,17.33
2023-05-11T11:43:10.626Z,16.00
2023-05-11T11:46:01.515Z,16.88
2023-05-11T11:48:46.831Z,16.85
2023-05-11T11:51:35.955Z,17.80
2023-05-11T11:54:37.231Z,18.85
2023-05-11T11:57:34.787Z,17.70
2023-05-11T12:00:20.964Z,18.75
2023-05-11T12:03:07.683Z,15.82
2023-05-11T12:05:58.373Z,16.38
2023-05-11T12:08:43.513Z,14.82
2023-05-11T12:11:29.595Z,14.85
2023-05-11T12:14:16.490Z,17.55
2023-05-11T12:17:03.651Z,19.80
2023-05-11T12:19:48.699Z,16.98
2023-05-11T12:22:36.576Z,17.45
2023-05-11T12:25:22.174Z,19.48
2023-05-11T12:28:07.495Z,18.30
2023-05-11T12:30:58.474Z,16.58
2023-05-11T12:33:50.156Z,15.45
2023-05-11T12:36:36.205Z,15.95
2023-05-11T12:39:26.172Z,15.07
2023-05-11T12:42:18.589Z,15.30
2023-05-11T12:45:05.545Z,13.77
2023-05-11T12:47:52.627Z,15.50
2023-05-11T12:50:42.788Z,13.27
2023-05-11T12:53:35.572Z,14.00
2023-05-11T12:56:20.894Z,13.68
2023-05-11T12:59:30.420Z,14.07
2023-05-11T13:02:20.620Z,11.80
2023-05-11T13:05:15.508Z,13.48
2023-05-11T13:08:05.194Z,12.57
2023-05-11T13:10:50.527Z,13.30
2023-05-11T13:13:35.900Z,13.25
2023-05-11T13:16:25.382Z,13.85
2023-05-11T13:19:10.422Z,14.35
2023-05-11T13:21:55.977Z,13.43
2023-05-11T13:24:41.321Z,13.73
2023-05-11T13:27:26.562Z,19.88
2023-05-11T13:30:12.153Z,16.92
2023-05-11T13:32:57.447Z,17.55
2023-05-11T13:35:44.095Z,18.20
2023-05-11T13:38:29.606Z,17.10
2023-05-11T13:41:15.066Z,16.58
2023-05-11T13:44:00.459Z,17.35
2023-05-11T13:46:45.629Z,18.10
2023-05-11T13:49:31.110Z,15.75
2023-05-11T13:52:16.664Z,16.05
2023-05-11T13:55:01.902Z,14.63
2023-05-11T13:57:46.897Z,14.05
2023-05-11T14:00:32.395Z,14.63
2023-05-11T14:03:17.634Z,15.60
2023-05-11T14:06:03.058Z,16.55
2023-05-11T14:08:48.350Z,17.80
2023-05-11T14:11:33.876Z,19.42
2023-05-11T14:14:19.562Z,16.77
2023-05-11T14:17:05.785Z,18.27
2023-05-11T14:19:50.864Z,17.48
2023-05-11T14:22:35.812Z,16.85
2023-05-11T14:25:21.356Z,16.25
2023-05-11T14:28:06.670Z,16.60
2023-05-11T14:30:51.606Z,17.20
2023-05-11T14:33:36.855Z,17.25
2023-05-11T14:36:22.701Z,18.85
2023-05-11T14:39:07.910Z,20.33
2023-05-11T14:41:53.171Z,20.40
2023-05-11T14:44:38.093Z,18.38
2023-05-11T14:47:23.085Z,19.42
2023-05-11T14:50:09.393Z,20.10
2023-05-11T14:52:54.900Z,20.52
2023-05-11T14:55:40.240Z,19.80
2023-05-11T14:58:25.601Z,20.00
2023-05-11T15:01:10.455Z,18.67
2023-05-11T15:03:56.000Z,16.90
2023-05-11T15:06:41.194Z,20.25
2023-05-11T15:09:26.602Z,19.52
2023-05-11T15:12:13.188Z,18.90
2023-05-11T15:14:58.370Z,16.33
2023-05-11T15:17:43.456Z,19.45
2023-05-11T15:20:28.970Z,16.20
2023-05-11T15:23:14.147Z,18.83
2023-05-11T15:26:00.812Z,17.33
2023-05-11T15:28:45.950Z,15.45
2023-05-11T15:31:31.002Z,15.32
2023-05-11T15:34:16.145Z,15.60
2023-05-11T15:37:01.018Z,17.65
2023-05-11T15:39:53.599Z,15.75
2023-05-11T15:42:39.059Z,20.90
2023-05-11T15:45:25.234Z,17.17
2023-05-11T15:48:10.665Z,15.40
2023-05-11T15:50:55.671Z,14.95
2023-05-11T15:53:40.504Z,15.68
2023-05-11T15:56:25.424Z,16.05
2023-05-11T15:59:10.571Z,16.65
2023-05-11T16:01:55.917Z,15.73
2023-05-11T16:04:41.367Z,16.17
2023-05-11T16:07:27.003Z,16.08
2023-05-11T16:10:12.022Z,17.55
2023-05-11T16:12:58.801Z,16.17
2023-05-11T16:15:44.233Z,17.67
2023-05-11T16:18:29.714Z,18.08
2023-05-11T16:21:15.097Z,18.92
2023-05-11T16:24:00.538Z,17.83
2023-05-11T16:26:45.967Z,17.80
2023-05-11T16:29:31.363Z,18.67
2023-05-11T16:32:16.696Z,17.05
2023-05-11T16:35:01.634Z,18.58
2023-05-11T16:37:47.199Z,20.15
2023-05-11T16:40:32.553Z,19.85
2023-05-11T16:43:17.837Z,16.98
2023-05-11T16:46:03.584Z,16.77
2023-05-11T16:48:48.836Z,16.58
2023-05-11T16:51:33.973Z,17.45
2023-05-11T16:54:20.161Z,16.13
2023-05-11T16:57:05.735Z,16.05
2023-05-11T16:59:51.409Z,17.67
2023-05-11T17:02:36.658Z,18.25
2023-05-11T17:05:22.418Z,17.70
2023-05-11T17:08:08.244Z,19.52
2023-05-11T17:10:53.323Z,16.83
2023-05-11T17:13:38.908Z,20.98
2023-05-11T17:16:24.234Z,20.10
2023-05-11T17:19:09.712Z,21.85
2023-05-11T17:21:55.056Z,19.95
2023-05-11T17:24:40.229Z,20.33
2023-05-11T17:27:25.976Z,51.40
2023-05-11T17:30:12.429Z,21.38
2023-05-11T17:32:57.826Z,20.13
2023-05-11T17:35:43.342Z,20.60
2023-05-11T17:38:28.461Z,20.38
2023-05-11T17:41:13.889Z,20.15
2023-05-11T17:43:59.395Z,19.88
2023-05-11T17:46:44.638Z,21.50
2023-05-11T17:49:30.051Z,21.08
2023-05-11T17:52:15.850Z,22.80
2023-05-11T17:55:00.899Z,21.13
2023-05-11T17:57:46.215Z,22.75
2023-05-11T18:00:31.556Z,22.95
2023-05-11T18:03:17.151Z,24.58
2023-05-11T18:06:02.499Z,27.13
2023-05-11T18:08:47.707Z,24.77
2023-05-11T18:11:33.063Z,28.52
2023-05-11T18:14:17.984Z,26.65
2023-05-11T18:17:03.451Z,26.75
2023-05-11T18:19:48.740Z,28.90
2023-05-11T18:22:34.259Z,25.45
2023-05-11T18:25:19.394Z,29.30
2023-05-11T18:28:04.376Z,31.27
2023-05-11T18:30:49.560Z,26.65
2023-05-11T18:33:34.477Z,28.27
2023-05-11T18:36:20.249Z,28.35
2023-05-11T18:39:05.216Z,28.05
2023-05-11T18:41:50.548Z,27.38
2023-05-11T18:44:35.914Z,26.95
2023-05-11T18:47:20.889Z,29.13
2023-05-11T18:50:06.657Z,28.02
2023-05-11T18:52:52.339Z,31.42
2023-05-11T18:55:51.886Z,37.70
2023-05-11T18:58:38.414Z,38.72
2023-05-11T19:01:30.302Z,35.88
2023-05-11T19:04:18.823Z,31.85
2023-05-11T19:07:04.198Z,35.58
2023-05-11T19:09:49.634Z,36.30
2023-05-11T19:12:34.971Z,37.50
2023-05-11T19:15:19.979Z,38.20
2023-05-11T19:18:05.697Z,42.50
2023-05-11T19:20:52.148Z,43.92
2023-05-11T19:23:37.189Z,53.83
2023-05-11T19:26:22.336Z,41.38
2023-05-11T19:29:07.971Z,38.55
2023-05-11T19:31:53.496Z,38.53
2023-05-11T19:34:38.739Z,39.47
2023-05-11T19:37:24.070Z,37.25
2023-05-11T19:40:37.287Z,42.20
2023-05-11T19:43:15.005Z,34.40
2023-05-11T19:46:03.273Z,39.60
2023-05-11T19:48:48.353Z,37.85
2023-05-11T19:51:33.733Z,37.42
2023-05-11T19:54:18.932Z,38.33
2023-05-11T19:57:04.226Z,36.08
2023-05-11T19:59:49.414Z,35.45
2023-05-11T20:02:35.289Z,40.53
2023-05-11T20:05:20.774Z,34.15
2023-05-11T20:08:05.872Z,33.80
2023-05-11T20:10:51.185Z,42.70
2023-05-11T20:13:36.585Z,35.00
2023-05-11T20:16:22.083Z,36.05
2023-05-11T20:19:07.400Z,35.10
2023-05-11T20:21:52.781Z,38.17
2023-05-11T20:24:37.553Z,39.55
2023-05-11T20:27:22.679Z,41.63
2023-05-11T20:30:08.851Z,42.72
2023-05-11T20:35:42.600Z,44.78
2023-05-11T20:38:27.652Z,44.85
2023-05-11T20:41:12.655Z,44.78
2023-05-11T20:43:57.812Z,48.75
2023-05-11T20:46:43.224Z,47.80
2023-05-11T20:49:38.082Z,48.75
2023-05-11T20:52:23.749Z,50.63
2023-05-11T20:55:09.139Z,199.65
2023-05-11T20:57:54.030Z,52.00
2023-05-11T21:00:39.762Z,50.60
2023-05-11T21:03:26.095Z,51.83
2023-05-11T21:06:11.222Z,56.80
2023-05-11T21:08:56.030Z,58.10
2023-05-11T21:11:41.436Z,60.80
2023-05-11T21:14:26.811Z,59.97
2023-05-11T21:17:11.966Z,58.65
2023-05-11T21:19:57.305Z,63.15
2023-05-11T21:22:42.511Z,61.15
2023-05-11T21:25:27.529Z,64.97
2023-05-11T21:28:12.667Z,65.75
2023-05-11T21:30:58.127Z,69.10
2023-05-11T21:33:43.525Z,65.20
2023-05-11T21:36:28.403Z,76.78
2023-05-11T21:39:13.453Z,82.47
2023-05-11T21:41:58.456Z,75.15
2023-05-11T21:44:43.839Z,77.03
2023-05-11T21:47:28.978Z,72.72
2023-05-11T21:50:14.355Z,67.60
2023-05-11T21:52:59.627Z,77.90
2023-05-11T21:55:44.378Z,74.85
2023-05-11T21:58:29.795Z,89.38
2023-05-11T22:01:14.625Z,75.75
2023-05-11T22:04:00.175Z,87.15
2023-05-11T22:06:45.329Z,75.32
2023-05-11T22:09:30.078Z,79.10
2023-05-11T22:12:14.987Z,76.72
2023-05-11T22:15:00.454Z,77.00
2023-05-11T22:17:45.798Z,72.55
2023-05-11T22:20:30.963Z,78.13
2023-05-11T22:23:15.942Z,91.88
2023-05-11T22:26:01.171Z,89.28
2023-05-11T22:28:46.438Z,86.95
2023-05-11T22:31:31.839Z,83.88
2023-05-11T22:34:19.566Z,77.63
2023-05-11T22:37:04.892Z,84.95
2023-05-11T22:39:50.052Z,80.55
2023-05-11T22:42:35.651Z,84.45
2023-05-11T22:45:20.976Z,79.18
2023-05-11T22:48:06.584Z,81.53
2023-05-11T22:50:51.565Z,85.47
2023-05-11T22:53:36.419Z,89.53
2023-05-11T22:56:21.409Z,80.40
2023-05-11T22:59:06.179Z,83.53
2023-05-11T23:01:51.108Z,74.18
2023-05-11T23:04:36.450Z,71.80
2023-05-11T23:07:21.340Z,68.82
2023-05-11T23:10:06.699Z,69.97
2023-05-11T23:12:51.714Z,71.45
2023-05-11T23:15:37.190Z,76.07
2023-05-11T23:18:22.846Z,78.75
2023-05-11T23:21:08.289Z,67.93
2023-05-11T23:23:53.762Z,80.78
2023-05-11T23:26:38.798Z,67.18
2023-05-11T23:29:24.496Z,70.60
2023-05-11T23:32:09.604Z,68.90
2023-05-11T23:34:54.495Z,65.40
2023-05-11T23:37:39.316Z,62.40
2023-05-11T23:40:25.123Z,66.63
2023-05-11T23:43:10.703Z,74.82
2023-05-11T23:45:55.563Z,57.70
2023-05-11T23:48:40.975Z,58.97
2023-05-11T23:51:26.208Z,57.35
2023-05-11T23:54:11.608Z,58.90
2023-05-11T23:56:57.057Z,50.50
2023-05-11T23:59:42.428Z,50.80
